sensor_id;sensor_type;location;lat;lon;timestamp;pressure;altitude;pressure_sealevel;temperature
78859;BMP280;68210;52.032;4.634;2023-05-10T00:01:54;100716.31;;;13.33
78859;BMP280;68210;52.032;4.634;2023-05-10T00:03:55;100711.66;;;13.33
78859;BMP280;68210;52.032;4.634;2023-05-10T00:05:55;100707.72;;;13.31
78859;BMP280;68210;52.032;4.634;2023-05-10T00:07:56;100712.00;;;13.32
78859;BMP280;68210;52.032;4.634;2023-05-10T00:09:56;100709.69;;;13.34
78859;BMP280;68210;52.032;4.634;2023-05-10T00:11:56;100703.44;;;13.30
78859;BMP280;68210;52.032;4.634;2023-05-10T00:13:58;100703.78;;;13.28
78859;BMP280;68210;52.032;4.634;2023-05-10T00:15:58;100703.84;;;13.32
78859;BMP280;68210;52.032;4.634;2023-05-10T00:17:59;100702.66;;;13.29
78859;BMP280;68210;52.032;4.634;2023-05-10T00:19:59;100703.38;;;13.26
78859;BMP280;68210;52.032;4.634;2023-05-10T00:22:00;100711.19;;;13.28
78859;BMP280;68210;52.032;4.634;2023-05-10T00:24:00;100702.19;;;13.24
78859;BMP280;68210;52.032;4.634;2023-05-10T00:26:01;100710.38;;;13.24
78859;BMP280;68210;52.032;4.634;2023-05-10T00:28:02;100704.13;;;13.23
78859;BMP280;68210;52.032;4.634;2023-05-10T00:30:02;100709.63;;;13.27
78859;BMP280;68210;52.032;4.634;2023-05-10T00:32:03;100718.78;;;13.15
78859;BMP280;68210;52.032;4.634;2023-05-10T00:34:03;100711.44;;;13.16
78859;BMP280;68210;52.032;4.634;2023-05-10T00:36:04;100714.03;;;13.09
78859;BMP280;68210;52.032;4.634;2023-05-10T00:38:07;100714.03;;;13.09
78859;BMP280;68210;52.032;4.634;2023-05-10T00:40:08;100715.59;;;13.10
78859;BMP280;68210;52.032;4.634;2023-05-10T00:42:09;100705.59;;;13.17
78859;BMP280;68210;52.032;4.634;2023-05-10T00:44:09;100704.78;;;13.13
78859;BMP280;68210;52.032;4.634;2023-05-10T00:46:10;100721.44;;;13.08
78859;BMP280;68210;52.032;4.634;2023-05-10T00:48:11;100711.53;;;12.97
78859;BMP280;68210;52.032;4.634;2023-05-10T00:50:11;100709.59;;;12.98
78859;BMP280;68210;52.032;4.634;2023-05-10T00:52:12;100709.75;;;13.08
78859;BMP280;68210;52.032;4.634;2023-05-10T00:54:14;100705.28;;;13.22
78859;BMP280;68210;52.032;4.634;2023-05-10T00:56:15;100709.44;;;13.13
78859;BMP280;68210;52.032;4.634;2023-05-10T00:58:16;100700.19;;;13.21
78859;BMP280;68210;52.032;4.634;2023-05-10T01:00:17;100706.97;;;13.05
78859;BMP280;68210;52.032;4.634;2023-05-10T01:02:18;100701.66;;;13.15
78859;BMP280;68210;52.032;4.634;2023-05-10T01:04:18;100704.06;;;13.20
78859;BMP280;68210;52.032;4.634;2023-05-10T01:06:21;100708.72;;;13.16
78859;BMP280;68210;52.032;4.634;2023-05-10T01:08:22;100707.69;;;13.02
78859;BMP280;68210;52.032;4.634;2023-05-10T01:10:22;100706.47;;;12.96
78859;BMP280;68210;52.032;4.634;2023-05-10T01:12:23;100708.44;;;12.99
78859;BMP280;68210;52.032;4.634;2023-05-10T01:14:24;100724.72;;;12.95
78859;BMP280;68210;52.032;4.634;2023-05-10T01:16:25;100722.00;;;12.95
78859;BMP280;68210;52.032;4.634;2023-05-10T01:18:27;100723.16;;;12.94
78859;BMP280;68210;52.032;4.634;2023-05-10T01:20:36;100724.88;;;13.06
78859;BMP280;68210;52.032;4.634;2023-05-10T01:32:44;100731.22;;;13.13
78859;BMP280;68210;52.032;4.634;2023-05-10T01:34:57;100742.09;;;13.13
78859;BMP280;68210;52.032;4.634;2023-05-10T01:37:11;100742.94;;;13.17
78859;BMP280;68210;52.032;4.634;2023-05-10T01:39:28;100739.03;;;13.18
78859;BMP280;68210;52.032;4.634;2023-05-10T01:46:03;100740.72;;;13.26
78859;BMP280;68210;52.032;4.634;2023-05-10T01:48:11;100742.28;;;13.27
78859;BMP280;68210;52.032;4.634;2023-05-10T01:50:18;100743.44;;;13.26
78859;BMP280;68210;52.032;4.634;2023-05-10T01:52:25;100748.56;;;13.31
78859;BMP280;68210;52.032;4.634;2023-05-10T01:54:27;100739.22;;;13.32
78859;BMP280;68210;52.032;4.634;2023-05-10T01:56:30;100746.63;;;13.31
78859;BMP280;68210;52.032;4.634;2023-05-10T01:58:33;100749.00;;;13.33
78859;BMP280;68210;52.032;4.634;2023-05-10T02:00:35;100742.06;;;13.38
78859;BMP280;68210;52.032;4.634;2023-05-10T02:02:38;100750.66;;;13.40
78859;BMP280;68210;52.032;4.634;2023-05-10T02:04:40;100755.78;;;13.45
78859;BMP280;68210;52.032;4.634;2023-05-10T02:06:41;100751.06;;;13.42
78859;BMP280;68210;52.032;4.634;2023-05-10T02:08:43;100751.91;;;13.46
78859;BMP280;68210;52.032;4.634;2023-05-10T02:10:46;100755.78;;;13.45
78859;BMP280;68210;52.032;4.634;2023-05-10T02:12:48;100751.91;;;13.46
78859;BMP280;68210;52.032;4.634;2023-05-10T02:14:50;100761.31;;;13.52
78859;BMP280;68210;52.032;4.634;2023-05-10T02:16:53;100754.28;;;13.51
78859;BMP280;68210;52.032;4.634;2023-05-10T02:18:57;100759.75;;;13.51
78859;BMP280;68210;52.032;4.634;2023-05-10T02:20:59;100751.66;;;13.58
78859;BMP280;68210;52.032;4.634;2023-05-10T02:23:01;100760.66;;;13.62
78859;BMP280;68210;52.032;4.634;2023-05-10T02:25:03;100765.69;;;13.60
78859;BMP280;68210;52.032;4.634;2023-05-10T02:27:04;100759.81;;;13.58
78859;BMP280;68210;52.032;4.634;2023-05-10T02:29:06;100760.28;;;13.64
78859;BMP280;68210;52.032;4.634;2023-05-10T02:31:07;100758.28;;;13.61
78859;BMP280;68210;52.032;4.634;2023-05-10T02:33:10;100771.56;;;13.62
78859;BMP280;68210;52.032;4.634;2023-05-10T02:35:12;100759.09;;;13.61
78859;BMP280;68210;52.032;4.634;2023-05-10T02:37:14;100764.19;;;13.66
78859;BMP280;68210;52.032;4.634;2023-05-10T02:39:16;100756.41;;;13.65
78859;BMP280;68210;52.032;4.634;2023-05-10T02:41:19;100764.16;;;13.63
78859;BMP280;68210;52.032;4.634;2023-05-10T02:43:22;100769.66;;;13.66
78859;BMP280;68210;52.032;4.634;2023-05-10T02:45:26;100764.59;;;13.65
78859;BMP280;68210;52.032;4.634;2023-05-10T02:47:28;100766.94;;;13.66
78859;BMP280;68210;52.032;4.634;2023-05-10T02:49:29;100769.66;;;13.66
78859;BMP280;68210;52.032;4.634;2023-05-10T02:51:32;100769.25;;;13.64
78859;BMP280;68210;52.032;4.634;2023-05-10T02:53:36;100763.81;;;13.64
78859;BMP280;68210;52.032;4.634;2023-05-10T02:55:40;100762.69;;;13.68
78859;BMP280;68210;52.032;4.634;2023-05-10T02:57:53;100770.09;;;13.71
78859;BMP280;68210;52.032;4.634;2023-05-10T02:59:54;100769.31;;;13.71
78859;BMP280;68210;52.032;4.634;2023-05-10T03:01:55;100763.09;;;13.70
78859;BMP280;68210;52.032;4.634;2023-05-10T03:03:55;100772.78;;;13.68
78859;BMP280;68210;52.032;4.634;2023-05-10T03:05:56;100772.78;;;13.68
78859;BMP280;68210;52.032;4.634;2023-05-10T03:07:58;100767.72;;;13.67
78859;BMP280;68210;52.032;4.634;2023-05-10T03:10:00;100774.78;;;13.71
78859;BMP280;68210;52.032;4.634;2023-05-10T03:12:05;100777.06;;;13.69
78859;BMP280;68210;52.032;4.634;2023-05-10T03:14:16;100775.16;;;13.69
78859;BMP280;68210;52.032;4.634;2023-05-10T03:16:25;100771.72;;;13.76
78859;BMP280;68210;52.032;4.634;2023-05-10T03:18:33;100776.44;;;13.79
78859;BMP280;68210;52.032;4.634;2023-05-10T03:20:47;100770.66;;;13.84
78859;BMP280;68210;52.032;4.634;2023-05-10T03:22:51;100765.47;;;13.72
78859;BMP280;68210;52.032;4.634;2023-05-10T03:24:55;100778.09;;;13.87
78859;BMP280;68210;52.032;4.634;2023-05-10T03:26:59;100770.75;;;13.91
78859;BMP280;68210;52.032;4.634;2023-05-10T03:29:04;100762.59;;;13.91
78859;BMP280;68210;52.032;4.634;2023-05-10T03:31:05;100776.59;;;13.93
78859;BMP280;68210;52.032;4.634;2023-05-10T03:33:06;100763.28;;;13.88
78859;BMP280;68210;52.032;4.634;2023-05-10T03:35:10;100766.75;;;13.81
78859;BMP280;68210;52.032;4.634;2023-05-10T03:37:12;100769.03;;;13.79
78859;BMP280;68210;52.032;4.634;2023-05-10T03:39:12;100765.84;;;13.74
78859;BMP280;68210;52.032;4.634;2023-05-10T03:41:12;100777.97;;;13.76
78859;BMP280;68210;52.032;4.634;2023-05-10T03:43:13;100775.63;;;13.75
78859;BMP280;68210;52.032;4.634;2023-05-10T03:45:13;100774.91;;;13.81
78859;BMP280;68210;52.032;4.634;2023-05-10T03:47:13;100786.22;;;13.83
78859;BMP280;68210;52.032;4.634;2023-05-10T03:49:14;100788.06;;;13.76
78859;BMP280;68210;52.032;4.634;2023-05-10T03:51:14;100782.59;;;13.72
78859;BMP280;68210;52.032;4.634;2023-05-10T03:53:15;100789.72;;;13.84
78859;BMP280;68210;52.032;4.634;2023-05-10T03:55:16;100782.66;;;13.79
78859;BMP280;68210;52.032;4.634;2023-05-10T03:57:16;100790.16;;;13.86
78859;BMP280;68210;52.032;4.634;2023-05-10T03:59:17;100780.03;;;13.86
78859;BMP280;68210;52.032;4.634;2023-05-10T04:01:17;100782.78;;;13.90
78859;BMP280;68210;52.032;4.634;2023-05-10T04:03:17;100789.09;;;13.94
78859;BMP280;68210;52.032;4.634;2023-05-10T04:05:18;100789.72;;;13.84
78859;BMP280;68210;52.032;4.634;2023-05-10T04:07:18;100778.06;;;13.83
78859;BMP280;68210;52.032;4.634;2023-05-10T04:09:19;100779.63;;;13.84
78859;BMP280;68210;52.032;4.634;2023-05-10T04:11:19;100775.63;;;13.75
78859;BMP280;68210;52.032;4.634;2023-05-10T04:13:21;100778.50;;;13.89
78859;BMP280;68210;52.032;4.634;2023-05-10T04:15:22;100772.91;;;13.75
78859;BMP280;68210;52.032;4.634;2023-05-10T04:17:23;100771.63;;;13.69
78859;BMP280;68210;52.032;4.634;2023-05-10T04:19:23;100777.91;;;13.73
78859;BMP280;68210;52.032;4.634;2023-05-10T04:21:23;100789.69;;;13.80
78859;BMP280;68210;52.032;4.634;2023-05-10T04:23:24;100784.94;;;13.74
78859;BMP280;68210;52.032;4.634;2023-05-10T04:25:25;100793.84;;;13.71
78859;BMP280;68210;52.032;4.634;2023-05-10T04:27:25;100794.75;;;13.82
78859;BMP280;68210;52.032;4.634;2023-05-10T04:29:26;100793.25;;;13.84
78859;BMP280;68210;52.032;4.634;2023-05-10T04:31:27;100798.72;;;13.88
78859;BMP280;68210;52.032;4.634;2023-05-10T04:33:28;100803.69;;;13.79
78859;BMP280;68210;52.032;4.634;2023-05-10T04:35:28;100806.09;;;13.84
78859;BMP280;68210;52.032;4.634;2023-05-10T04:37:28;100805.19;;;13.76
78859;BMP280;68210;52.032;4.634;2023-05-10T04:39:29;100810.03;;;13.90
78859;BMP280;68210;52.032;4.634;2023-05-10T04:41:29;100808.03;;;13.83
78859;BMP280;68210;52.032;4.634;2023-05-10T04:43:29;100814.56;;;13.79
78859;BMP280;68210;52.032;4.634;2023-05-10T04:45:30;100811.69;;;13.65
78859;BMP280;68210;52.032;4.634;2023-05-10T04:47:30;100810.94;;;13.68
78859;BMP280;68210;52.032;4.634;2023-05-10T04:49:31;100807.31;;;13.61
78859;BMP280;68210;52.032;4.634;2023-05-10T04:51:31;100812.13;;;13.70
78859;BMP280;68210;52.032;4.634;2023-05-10T04:53:32;100821.44;;;13.40
78859;BMP280;68210;52.032;4.634;2023-05-10T04:55:32;100836.44;;;13.53
78859;BMP280;68210;52.032;4.634;2023-05-10T04:57:33;100820.28;;;13.67
78859;BMP280;68210;52.032;4.634;2023-05-10T04:59:35;100825.03;;;13.73
78859;BMP280;68210;52.032;4.634;2023-05-10T05:01:36;100826.34;;;13.57
78859;BMP280;68210;52.032;4.634;2023-05-10T05:03:36;100843.47;;;13.58
78859;BMP280;68210;52.032;4.634;2023-05-10T05:05:37;100822.69;;;13.72
78859;BMP280;68210;52.032;4.634;2023-05-10T05:07:37;100830.94;;;13.79
78859;BMP280;68210;52.032;4.634;2023-05-10T05:09:38;100833.75;;;13.86
78859;BMP280;68210;52.032;4.634;2023-05-10T05:11:38;100832.91;;;13.82
78859;BMP280;68210;52.032;4.634;2023-05-10T05:13:40;100834.72;;;13.71
78859;BMP280;68210;52.032;4.634;2023-05-10T05:15:40;100831.44;;;13.59
78859;BMP280;68210;52.032;4.634;2023-05-10T05:17:41;100846.28;;;13.61
78859;BMP280;68210;52.032;4.634;2023-05-10T05:19:41;100852.84;;;13.60
78859;BMP280;68210;52.032;4.634;2023-05-10T05:21:41;100843.63;;;13.68
78859;BMP280;68210;52.032;4.634;2023-05-10T05:23:42;100847.97;;;13.72
78859;BMP280;68210;52.032;4.634;2023-05-10T05:25:42;100851.91;;;13.75
78859;BMP280;68210;52.032;4.634;2023-05-10T05:27:42;100851.91;;;13.75
78859;BMP280;68210;52.032;4.634;2023-05-10T05:29:44;100851.81;;;13.68
78859;BMP280;68210;52.032;4.634;2023-05-10T05:31:44;100858.81;;;13.69
78859;BMP280;68210;52.032;4.634;2023-05-10T05:33:44;100867.72;;;13.66
78859;BMP280;68210;52.032;4.634;2023-05-10T05:35:45;100860.28;;;13.63
78859;BMP280;68210;52.032;4.634;2023-05-10T05:37:50;100879.78;;;13.65
78859;BMP280;68210;52.032;4.634;2023-05-10T05:39:51;100856.34;;;13.61
78859;BMP280;68210;52.032;4.634;2023-05-10T05:41:51;100872.03;;;13.67
78859;BMP280;68210;52.032;4.634;2023-05-10T05:43:51;100868.66;;;13.77
78859;BMP280;68210;52.032;4.634;2023-05-10T05:45:52;100874.94;;;13.81
78859;BMP280;68210;52.032;4.634;2023-05-10T05:47:53;100879.47;;;13.70
78859;BMP280;68210;52.032;4.634;2023-05-10T05:49:53;100883.88;;;13.78
78859;BMP280;68210;52.032;4.634;2023-05-10T05:51:54;100870.84;;;13.65
78859;BMP280;68210;52.032;4.634;2023-05-10T05:53:55;100873.13;;;13.63
78859;BMP280;68210;52.032;4.634;2023-05-10T05:55:56;100876.63;;;13.63
78859;BMP280;68210;52.032;4.634;2023-05-10T05:57:58;100883.78;;;13.74
78859;BMP280;68210;52.032;4.634;2023-05-10T05:59:58;100883.75;;;13.71
78859;BMP280;68210;52.032;4.634;2023-05-10T06:01:59;100883.88;;;13.78
78859;BMP280;68210;52.032;4.634;2023-05-10T06:04:00;100876.75;;;13.70
78859;BMP280;68210;52.032;4.634;2023-05-10T06:06:01;100881.47;;;13.73
78859;BMP280;68210;52.032;4.634;2023-05-10T06:08:01;100879.91;;;13.72
78859;BMP280;68210;52.032;4.634;2023-05-10T06:10:01;100883.13;;;13.81
78859;BMP280;68210;52.032;4.634;2023-05-10T06:12:02;100887.09;;;13.87
78859;BMP280;68210;52.032;4.634;2023-05-10T06:14:04;100883.94;;;13.85
78859;BMP280;68210;52.032;4.634;2023-05-10T06:16:04;100883.88;;;13.78
78859;BMP280;68210;52.032;4.634;2023-05-10T06:18:05;100886.41;;;13.93
78859;BMP280;68210;52.032;4.634;2023-05-10T06:20:06;100890.97;;;14.11
78859;BMP280;68210;52.032;4.634;2023-05-10T06:22:07;100889.44;;;14.14
78859;BMP280;68210;52.032;4.634;2023-05-10T06:24:07;100889.56;;;14.24
78859;BMP280;68210;52.032;4.634;2023-05-10T06:26:08;100884.94;;;14.28
78859;BMP280;68210;52.032;4.634;2023-05-10T06:28:08;100883.97;;;14.46
78859;BMP280;68210;52.032;4.634;2023-05-10T06:30:09;100883.06;;;14.35
78859;BMP280;68210;52.032;4.634;2023-05-10T06:32:10;100885.19;;;14.49
78859;BMP280;68210;52.032;4.634;2023-05-10T06:34:10;100890.75;;;14.59
78859;BMP280;68210;52.032;4.634;2023-05-10T06:36:11;100889.03;;;14.80
78859;BMP280;68210;52.032;4.634;2023-05-10T06:38:13;100884.38;;;14.84
78859;BMP280;68210;52.032;4.634;2023-05-10T06:40:13;100893.31;;;14.81
78859;BMP280;68210;52.032;4.634;2023-05-10T06:42:13;100895.25;;;14.77
78859;BMP280;68210;52.032;4.634;2023-05-10T06:44:14;100885.31;;;14.98
78859;BMP280;68210;52.032;4.634;2023-05-10T06:46:14;100887.88;;;15.20
78859;BMP280;68210;52.032;4.634;2023-05-10T06:48:15;100895.75;;;15.32
78859;BMP280;68210;52.032;4.634;2023-05-10T06:50:15;100894.28;;;15.38
78859;BMP280;68210;52.032;4.634;2023-05-10T06:52:15;100889.25;;;15.47
78859;BMP280;68210;52.032;4.634;2023-05-10T06:54:16;100892.84;;;15.58
78859;BMP280;68210;52.032;4.634;2023-05-10T06:56:16;100894.09;;;15.71
78859;BMP280;68210;52.032;4.634;2023-05-10T06:58:17;100891.28;;;15.57
78859;BMP280;68210;52.032;4.634;2023-05-10T07:00:18;100898.38;;;15.68
78859;BMP280;68210;52.032;4.634;2023-05-10T07:02:18;100896.78;;;15.64
78859;BMP280;68210;52.032;4.634;2023-05-10T07:04:18;100899.94;;;15.73
78859;BMP280;68210;52.032;4.634;2023-05-10T07:06:19;100895.34;;;15.83
78859;BMP280;68210;52.032;4.634;2023-05-10T07:08:20;100896.91;;;15.81
78859;BMP280;68210;52.032;4.634;2023-05-10T07:10:20;100905.97;;;15.92
78859;BMP280;68210;52.032;4.634;2023-05-10T07:12:20;100908.81;;;16.12
78859;BMP280;68210;52.032;4.634;2023-05-10T07:14:22;100909.63;;;16.16
78859;BMP280;68210;52.032;4.634;2023-05-10T07:16:23;100907.22;;;16.08
78859;BMP280;68210;52.032;4.634;2023-05-10T07:18:24;100909.22;;;16.14
78859;BMP280;68210;52.032;4.634;2023-05-10T07:20:24;100907.31;;;16.18
78859;BMP280;68210;52.032;4.634;2023-05-10T07:22:24;100909.53;;;16.06
78859;BMP280;68210;52.032;4.634;2023-05-10T07:24:25;100912.63;;;16.01
78859;BMP280;68210;52.032;4.634;2023-05-10T07:26:25;100916.47;;;15.86
78859;BMP280;68210;52.032;4.634;2023-05-10T07:28:25;100917.53;;;15.72
78859;BMP280;68210;52.032;4.634;2023-05-10T07:30:26;100917.13;;;15.70
78859;BMP280;68210;52.032;4.634;2023-05-10T07:32:26;100922.22;;;15.71
78859;BMP280;68210;52.032;4.634;2023-05-10T07:34:27;100927.63;;;15.64
78859;BMP280;68210;52.032;4.634;2023-05-10T07:36:28;100929.56;;;15.60
78859;BMP280;68210;52.032;4.634;2023-05-10T07:38:28;100929.56;;;15.60
78859;BMP280;68210;52.032;4.634;2023-05-10T07:40:29;100922.88;;;15.54
78859;BMP280;68210;52.032;4.634;2023-05-10T07:42:30;100925.53;;;15.44
78859;BMP280;68210;52.032;4.634;2023-05-10T07:44:30;100926.22;;;15.34
78859;BMP280;68210;52.032;4.634;2023-05-10T07:46:31;100922.81;;;15.48
78859;BMP280;68210;52.032;4.634;2023-05-10T07:48:31;100928.69;;;15.50
78859;BMP280;68210;52.032;4.634;2023-05-10T07:50:31;100920.19;;;15.61
78859;BMP280;68210;52.032;4.634;2023-05-10T07:52:32;100931.50;;;15.60
78859;BMP280;68210;52.032;4.634;2023-05-10T07:54:33;100938.84;;;15.49
78859;BMP280;68210;52.032;4.634;2023-05-10T07:56:33;100943.56;;;15.52
78859;BMP280;68210;52.032;4.634;2023-05-10T07:58:34;100936.50;;;15.51
78859;BMP280;68210;52.032;4.634;2023-05-10T08:00:35;100936.13;;;15.49
78859;BMP280;68210;52.032;4.634;2023-05-10T08:02:35;100938.13;;;15.59
78859;BMP280;68210;52.032;4.634;2023-05-10T08:04:36;100935.03;;;15.64
78859;BMP280;68210;52.032;4.634;2023-05-10T08:06:36;100940.47;;;15.57
78859;BMP280;68210;52.032;4.634;2023-05-10T08:08:37;100942.72;;;15.48
78859;BMP280;68210;52.032;4.634;2023-05-10T08:10:37;100941.50;;;15.42
78859;BMP280;68210;52.032;4.634;2023-05-10T08:12:38;100942.63;;;15.34
78859;BMP280;68210;52.032;4.634;2023-05-10T08:14:38;100943.38;;;15.31
78859;BMP280;68210;52.032;4.634;2023-05-10T08:16:39;100947.59;;;15.22
78859;BMP280;68210;52.032;4.634;2023-05-10T08:18:39;100945.25;;;15.24
78859;BMP280;68210;52.032;4.634;2023-05-10T08:20:40;100944.06;;;15.21
78859;BMP280;68210;52.032;4.634;2023-05-10T08:22:40;100957.91;;;15.42
78859;BMP280;68210;52.032;4.634;2023-05-10T08:24:41;100954.38;;;15.38
78859;BMP280;68210;52.032;4.634;2023-05-10T08:26:42;100964.88;;;15.36
78859;BMP280;68210;52.032;4.634;2023-05-10T08:28:42;100956.63;;;15.29
78859;BMP280;68210;52.032;4.634;2023-05-10T08:30:42;100967.53;;;15.29
78859;BMP280;68210;52.032;4.634;2023-05-10T08:32:43;100966.41;;;15.30
78859;BMP280;68210;52.032;4.634;2023-05-10T08:34:43;100965.22;;;15.28
78859;BMP280;68210;52.032;4.634;2023-05-10T08:36:43;100965.97;;;15.28
78859;BMP280;68210;52.032;4.634;2023-05-10T08:38:44;100968.72;;;15.28
78859;BMP280;68210;52.032;4.634;2023-05-10T08:40:44;100965.97;;;15.28
78859;BMP280;68210;52.032;4.634;2023-05-10T08:43:04;100975.72;;;15.26
78859;BMP280;68210;52.032;4.634;2023-05-10T08:45:10;100972.66;;;15.31
78859;BMP280;68210;52.032;4.634;2023-05-10T08:47:12;100973.84;;;15.33
78859;BMP280;68210;52.032;4.634;2023-05-10T08:49:16;100976.13;;;15.28
78859;BMP280;68210;52.032;4.634;2023-05-10T08:51:21;100990.22;;;15.33
78859;BMP280;68210;52.032;4.634;2023-05-10T08:53:23;100987.06;;;15.31
78859;BMP280;68210;52.032;4.634;2023-05-10T08:55:24;100992.19;;;15.33
78859;BMP280;68210;52.032;4.634;2023-05-10T08:57:25;100985.53;;;15.30
78859;BMP280;68210;52.032;4.634;2023-05-10T08:59:25;100981.63;;;15.31
78859;BMP280;68210;52.032;4.634;2023-05-10T09:01:26;100987.16;;;15.38
78859;BMP280;68210;52.032;4.634;2023-05-10T09:03:27;100991.88;;;15.41
78859;BMP280;68210;52.032;4.634;2023-05-10T09:05:27;100998.22;;;15.55
78859;BMP280;68210;52.032;4.634;2023-05-10T09:07:31;100988.09;;;15.59
78859;BMP280;68210;52.032;4.634;2023-05-10T09:09:32;100997.44;;;15.55
78859;BMP280;68210;52.032;4.634;2023-05-10T09:11:32;100993.22;;;15.64
78859;BMP280;68210;52.032;4.634;2023-05-10T09:13:33;101003.81;;;15.73
78859;BMP280;68210;52.032;4.634;2023-05-10T09:15:33;100999.94;;;15.74
78859;BMP280;68210;52.032;4.634;2023-05-10T09:17:34;101001.50;;;15.75
78859;BMP280;68210;52.032;4.634;2023-05-10T09:19:34;101006.22;;;15.78
78859;BMP280;68210;52.032;4.634;2023-05-10T09:21:35;101007.06;;;15.85
78859;BMP280;68210;52.032;4.634;2023-05-10T09:23:38;101004.69;;;15.83
78859;BMP280;68210;52.032;4.634;2023-05-10T09:25:38;101000.84;;;15.88
78859;BMP280;68210;52.032;4.634;2023-05-10T09:27:44;101016.47;;;15.87
78859;BMP280;68210;52.032;4.634;2023-05-10T09:29:45;101009.44;;;15.86
78859;BMP280;68210;52.032;4.634;2023-05-10T09:31:50;101017.59;;;15.83
78859;BMP280;68210;52.032;4.634;2023-05-10T09:33:56;101017.91;;;15.75
78859;BMP280;68210;52.032;4.634;2023-05-10T09:36:06;101022.38;;;15.96
78859;BMP280;68210;52.032;4.634;2023-05-10T09:38:07;101022.09;;;16.08
78859;BMP280;68210;52.032;4.634;2023-05-10T09:40:11;101027.47;;;15.98
78859;BMP280;68210;52.032;4.634;2023-05-10T09:42:12;101017.31;;;15.98
78859;BMP280;68210;52.032;4.634;2023-05-10T09:44:16;101019.94;;;15.84
78859;BMP280;68210;52.032;4.634;2023-05-10T09:46:17;101022.38;;;15.96
78859;BMP280;68210;52.032;4.634;2023-05-10T09:48:18;101025.06;;;15.89
78859;BMP280;68210;52.032;4.634;2023-05-10T09:50:20;101018.06;;;15.92
78859;BMP280;68210;52.032;4.634;2023-05-10T09:52:22;101024.13;;;15.72
78859;BMP280;68210;52.032;4.634;2023-05-10T09:54:22;101030.63;;;16.03
78859;BMP280;68210;52.032;4.634;2023-05-10T09:56:33;101029.97;;;16.13
78859;BMP280;68210;52.032;4.634;2023-05-10T09:58:39;101026.19;;;16.35
78859;BMP280;68210;52.032;4.634;2023-05-10T10:00:41;101033.78;;;16.05
78859;BMP280;68210;52.032;4.634;2023-05-10T10:02:42;101027.16;;;16.10
78859;BMP280;68210;52.032;4.634;2023-05-10T10:04:42;101033.50;;;16.17
78859;BMP280;68210;52.032;4.634;2023-05-10T10:06:43;101026.06;;;16.14
78859;BMP280;68210;52.032;4.634;2023-05-10T10:08:43;101034.28;;;16.21
78859;BMP280;68210;52.032;4.634;2023-05-10T10:10:43;101028.16;;;16.38
78859;BMP280;68210;52.032;4.634;2023-05-10T10:12:47;101023.06;;;16.33
78859;BMP280;68210;52.032;4.634;2023-05-10T10:14:47;101030.88;;;16.34
78859;BMP280;68210;52.032;4.634;2023-05-10T10:16:50;101035.25;;;16.49
78859;BMP280;68210;52.032;4.634;2023-05-10T10:18:54;101038.84;;;16.63
78859;BMP280;68210;52.032;4.634;2023-05-10T10:20:55;101029.09;;;16.66
78859;BMP280;68210;52.032;4.634;2023-05-10T10:22:56;101034.19;;;16.67
78859;BMP280;68210;52.032;4.634;2023-05-10T10:24:56;101027.06;;;16.56
78859;BMP280;68210;52.032;4.634;2023-05-10T10:27:48;101027.94;;;16.70
78859;BMP280;68210;52.032;4.634;2023-05-10T10:29:39;101029.50;;;16.71
78859;BMP280;68210;52.032;4.634;2023-05-10T10:31:53;101031.88;;;16.76
78859;BMP280;68210;52.032;4.634;2023-05-10T10:36:01;101035.78;;;16.78
78859;BMP280;68210;52.032;4.634;2023-05-10T10:38:02;101029.59;;;16.92
78859;BMP280;68210;52.032;4.634;2023-05-10T10:40:23;101031.97;;;17.03
78859;BMP280;68210;52.032;4.634;2023-05-10T10:42:45;101035.06;;;16.92
78859;BMP280;68210;52.032;4.634;2023-05-10T10:45:12;101025.00;;;17.16
78859;BMP280;68210;52.032;4.634;2023-05-10T10:49:18;101036.94;;;16.71
78859;BMP280;68210;52.032;4.634;2023-05-10T10:51:19;101039.66;;;16.67
78859;BMP280;68210;52.032;4.634;2023-05-10T10:53:19;101044.25;;;16.49
78859;BMP280;68210;52.032;4.634;2023-05-10T10:55:20;101040.38;;;16.54
78859;BMP280;68210;52.032;4.634;2023-05-10T10:57:25;101044.09;;;16.22
78859;BMP280;68210;52.032;4.634;2023-05-10T10:59:27;101053.72;;;16.09
78859;BMP280;68210;52.032;4.634;2023-05-10T11:01:32;101049.22;;;16.27
78859;BMP280;68210;52.032;4.634;2023-05-10T11:03:33;101052.72;;;16.27
78859;BMP280;68210;52.032;4.634;2023-05-10T11:05:34;101061.38;;;16.40
78859;BMP280;68210;52.032;4.634;2023-05-10T11:07:35;101045.66;;;16.23
78859;BMP280;68210;52.032;4.634;2023-05-10T11:09:39;101056.59;;;16.26
78859;BMP280;68210;52.032;4.634;2023-05-10T11:11:58;101050.41;;;16.33
78859;BMP280;68210;52.032;4.634;2023-05-10T11:14:04;101062.56;;;16.35
78859;BMP280;68210;52.032;4.634;2023-05-10T11:16:13;101054.41;;;16.49
78859;BMP280;68210;52.032;4.634;2023-05-10T11:18:23;101056.84;;;16.64
78859;BMP280;68210;52.032;4.634;2023-05-10T11:20:27;101061.63;;;16.88
78859;BMP280;68210;52.032;4.634;2023-05-10T11:22:49;101053.06;;;16.86
78859;BMP280;68210;52.032;4.634;2023-05-10T11:24:59;101053.44;;;16.88
78859;BMP280;68210;52.032;4.634;2023-05-10T11:27:01;101062.38;;;16.74
78859;BMP280;68210;52.032;4.634;2023-05-10T11:29:02;101063.25;;;16.96
78859;BMP280;68210;52.032;4.634;2023-05-10T11:31:05;101062.88;;;16.94
78859;BMP280;68210;52.032;4.634;2023-05-10T11:33:09;101062.44;;;16.88
78859;BMP280;68210;52.032;4.634;2023-05-10T11:35:11;101071.13;;;17.07
78859;BMP280;68210;52.032;4.634;2023-05-10T11:37:11;101079.00;;;17.16
78859;BMP280;68210;52.032;4.634;2023-05-10T11:39:12;101069.94;;;17.02
78859;BMP280;68210;52.032;4.634;2023-05-10T11:41:12;101071.47;;;16.96
78859;BMP280;68210;52.032;4.634;2023-05-10T11:43:13;101073.41;;;16.88
78859;BMP280;68210;52.032;4.634;2023-05-10T11:45:13;101080.84;;;16.95
78859;BMP280;68210;52.032;4.634;2023-05-10T11:47:13;101075.75;;;16.90
78859;BMP280;68210;52.032;4.634;2023-05-10T11:49:15;101082.81;;;16.91
78859;BMP280;68210;52.032;4.634;2023-05-10T11:51:22;101087.94;;;17.02
78859;BMP280;68210;52.032;4.634;2023-05-10T11:53:25;101075.84;;;17.07